createdAt,value
2018-06-27T00:00:49.280Z,0.00
2018-06-27T00:01:49.282Z,0.00
2018-06-27T00:02:49.287Z,0.00
2018-06-27T00:03:49.285Z,0.00
2018-06-27T00:04:49.291Z,0.00
2018-06-27T00:05:49.294Z,0.00
2018-06-27T00:06:49.298Z,0.00
2018-06-27T00:07:49.301Z,0.00
2018-06-27T00:08:49.300Z,0.00
2018-06-27T00:09:49.300Z,0.00
2018-06-27T00:10:49.308Z,0.00
2018-06-27T00:11:49.312Z,0.00
2018-06-27T00:12:49.313Z,0.00
2018-06-27T00:13:49.316Z,0.00
2018-06-27T00:14:49.315Z,0.00
2018-06-27T00:15:49.320Z,0.00
2018-06-27T00:16:49.324Z,0.00
2018-06-27T00:17:49.325Z,0.00
2018-06-27T00:18:49.326Z,0.00
2018-06-27T00:19:49.329Z,0.00
2018-06-27T00:20:49.386Z,0.00
2018-06-27T00:21:49.335Z,0.00
2018-06-27T00:22:49.337Z,0.00
2018-06-27T00:23:49.340Z,0.00
2018-06-27T00:24:49.342Z,0.00
2018-06-27T00:25:49.348Z,0.00
2018-06-27T00:26:49.352Z,0.00
2018-06-27T00:27:49.353Z,0.00
2018-06-27T00:28:49.352Z,0.00
2018-06-27T00:29:49.355Z,0.00
2018-06-27T00:30:49.357Z,0.00
2018-06-27T00:31:49.352Z,0.00
2018-06-27T00:32:49.367Z,0.00
2018-06-27T00:33:49.365Z,0.00
2018-06-27T00:34:49.367Z,0.00
2018-06-27T00:35:49.368Z,0.00
2018-06-27T00:36:49.369Z,0.00
2018-06-27T00:37:49.374Z,0.00
2018-06-27T00:38:49.373Z,0.00
2018-06-27T00:39:49.374Z,0.00
2018-06-27T00:40:49.377Z,0.00
2018-06-27T00:41:49.377Z,0.00
2018-06-27T00:42:49.380Z,0.00
2018-06-27T00:43:49.379Z,0.00
2018-06-27T00:44:49.386Z,0.00
2018-06-27T00:45:49.388Z,0.00
2018-06-27T00:46:49.386Z,0.00
2018-06-27T00:47:49.396Z,0.00
2018-06-27T00:48:49.386Z,0.00
2018-06-27T00:49:49.394Z,0.00
2018-06-27T00:50:49.396Z,0.00
2018-06-27T00:51:49.399Z,0.00
2018-06-27T00:52:49.397Z,0.00
2018-06-27T00:53:49.401Z,0.00
2018-06-27T00:54:49.408Z,0.00
2018-06-27T00:55:49.405Z,0.00
2018-06-27T00:56:49.412Z,0.00
2018-06-27T00:57:49.413Z,0.00
2018-06-27T00:58:49.407Z,0.00
2018-06-27T00:59:49.405Z,0.00
2018-06-27T01:00:49.414Z,0.00
2018-06-27T01:01:49.413Z,0.00
2018-06-27T01:02:49.414Z,0.00
2018-06-27T01:03:49.417Z,0.00
2018-06-27T01:04:49.418Z,0.00
2018-06-27T01:05:49.418Z,0.00
2018-06-27T01:06:49.419Z,0.00
2018-06-27T01:07:49.424Z,0.00
2018-06-27T01:08:49.421Z,0.00
2018-06-27T01:09:49.422Z,0.00
2018-06-27T01:10:49.421Z,0.00
2018-06-27T01:11:49.427Z,0.00
2018-06-27T01:12:49.427Z,0.00
2018-06-27T01:13:49.432Z,0.00
2018-06-27T01:14:49.435Z,0.00
2018-06-27T01:15:49.436Z,0.00
2018-06-27T01:16:49.436Z,0.00
2018-06-27T01:17:49.440Z,0.00
2018-06-27T01:18:49.437Z,0.00
2018-06-27T01:19:49.438Z,0.00
2018-06-27T01:20:49.438Z,0.00
2018-06-27T01:21:49.439Z,0.00
2018-06-27T01:22:49.441Z,0.00
2018-06-27T01:23:49.492Z,0.00
2018-06-27T01:24:49.437Z,0.00
2018-06-27T01:25:49.447Z,0.00
2018-06-27T01:26:49.443Z,0.00
2018-06-27T01:27:49.448Z,0.00
2018-06-27T01:28:49.449Z,0.00
2018-06-27T01:29:49.450Z,0.00
2018-06-27T01:30:49.453Z,0.00
2018-06-27T01:31:49.453Z,0.00
2018-06-27T01:32:49.456Z,0.00
2018-06-27T01:33:49.456Z,0.00
2018-06-27T01:34:49.457Z,0.00
2018-06-27T01:35:49.459Z,0.00
2018-06-27T01:36:49.457Z,0.00
2018-06-27T01:37:49.459Z,0.00
2018-06-27T01:38:49.461Z,0.00
2018-06-27T01:39:49.462Z,0.00
2018-06-27T01:40:49.462Z,0.00
2018-06-27T01:41:49.463Z,0.00
2018-06-27T01:42:49.465Z,0.00
2018-06-27T01:43:49.466Z,0.00
2018-06-27T01:44:49.463Z,0.00
2018-06-27T01:45:49.466Z,0.00
2018-06-27T01:46:49.464Z,0.00
2018-06-27T01:47:49.467Z,0.00
2018-06-27T01:48:49.470Z,0.00
2018-06-27T01:49:49.472Z,0.00
2018-06-27T01:50:49.477Z,0.00
2018-06-27T01:51:49.473Z,0.00
2018-06-27T01:52:49.475Z,0.00
2018-06-27T01:53:49.476Z,0.00
2018-06-27T01:54:49.476Z,0.00
2018-06-27T01:55:49.479Z,0.00
2018-06-27T01:56:49.477Z,0.00
2018-06-27T01:57:49.479Z,0.00
2018-06-27T01:58:49.480Z,0.00
2018-06-27T01:59:49.480Z,0.00
2018-06-27T02:00:49.474Z,0.00
2018-06-27T02:01:49.484Z,0.00
2018-06-27T02:02:49.485Z,0.00
2018-06-27T02:03:49.486Z,0.00
2018-06-27T02:04:49.484Z,0.00
2018-06-27T02:05:49.505Z,0.00
2018-06-27T02:06:49.486Z,0.00
2018-06-27T02:07:49.488Z,0.00
2018-06-27T02:08:49.481Z,0.00
2018-06-27T02:09:49.489Z,0.00
2018-06-27T02:10:49.487Z,0.00
2018-06-27T02:11:49.490Z,0.00
2018-06-27T02:12:49.491Z,0.00
2018-06-27T02:13:49.489Z,0.00
2018-06-27T02:14:49.492Z,0.00
2018-06-27T02:15:49.493Z,0.00
2018-06-27T02:16:49.488Z,0.00
2018-06-27T02:17:49.494Z,0.00
2018-06-27T02:18:49.496Z,0.00
2018-06-27T02:19:49.499Z,0.00
2018-06-27T02:20:49.497Z,0.00
2018-06-27T02:21:49.496Z,0.00
2018-06-27T02:22:49.492Z,0.00
2018-06-27T02:23:49.499Z,0.00
2018-06-27T02:24:49.500Z,0.00
2018-06-27T02:25:49.493Z,0.00
2018-06-27T02:26:49.501Z,0.00
2018-06-27T02:27:49.507Z,0.00
2018-06-27T02:28:49.503Z,0.00
2018-06-27T02:29:49.501Z,0.00
2018-06-27T02:30:49.501Z,0.00
2018-06-27T02:31:49.504Z,0.00
2018-06-27T02:32:49.501Z,0.00
2018-06-27T02:33:49.503Z,0.00
2018-06-27T02:34:49.506Z,0.00
2018-06-27T02:35:49.506Z,0.00
2018-06-27T02:36:49.505Z,0.00
2018-06-27T02:37:49.506Z,0.00
2018-06-27T02:38:49.507Z,0.00
2018-06-27T02:39:49.506Z,0.00
2018-06-27T02:40:49.511Z,5.63
2018-06-27T02:41:49.505Z,5.63
2018-06-27T02:42:49.513Z,5.63
2018-06-27T02:43:49.502Z,5.63
2018-06-27T02:44:49.503Z,5.63
2018-06-27T02:45:49.509Z,5.63
2018-06-27T02:46:49.512Z,5.63
2018-06-27T02:47:49.513Z,5.63
2018-06-27T02:48:49.519Z,11.25
2018-06-27T02:49:49.614Z,11.25
2018-06-27T02:50:49.513Z,11.25
2018-06-27T02:51:49.514Z,11.25
2018-06-27T02:52:49.513Z,11.25
2018-06-27T02:53:49.512Z,16.88
2018-06-27T02:54:49.513Z,16.88
2018-06-27T02:55:49.514Z,16.88
2018-06-27T02:56:49.515Z,16.88
2018-06-27T02:57:49.513Z,16.88
2018-06-27T02:58:49.519Z,22.50
2018-06-27T02:59:49.516Z,22.50
2018-06-27T03:00:49.517Z,22.50
2018-06-27T03:01:49.509Z,22.50
2018-06-27T03:02:49.516Z,28.13
2018-06-27T03:03:49.519Z,28.13
2018-06-27T03:04:49.518Z,28.13
2018-06-27T03:05:49.517Z,28.13
2018-06-27T03:06:49.521Z,33.75
2018-06-27T03:07:49.521Z,33.75
2018-06-27T03:08:49.520Z,33.75
2018-06-27T03:09:49.519Z,39.38
2018-06-27T03:10:49.520Z,39.38
2018-06-27T03:11:49.521Z,45.00
2018-06-27T03:12:49.517Z,45.00
2018-06-27T03:13:49.521Z,45.00
2018-06-27T03:14:49.521Z,50.63
2018-06-27T03:15:49.521Z,50.63
2018-06-27T03:16:49.521Z,56.25
2018-06-27T03:17:49.521Z,56.25
2018-06-27T03:18:49.523Z,61.88
2018-06-27T03:19:49.523Z,61.88
2018-06-27T03:20:49.523Z,61.88
2018-06-27T03:21:49.524Z,67.50
2018-06-27T03:22:49.521Z,67.50
2018-06-27T03:23:49.523Z,67.50
2018-06-27T03:24:49.522Z,73.13
2018-06-27T03:25:49.525Z,73.13
2018-06-27T03:26:49.527Z,73.13
2018-06-27T03:27:49.525Z,73.13
2018-06-27T03:28:49.526Z,73.13
2018-06-27T03:29:49.522Z,73.13
2018-06-27T03:30:49.529Z,78.75
2018-06-27T03:31:49.527Z,78.75
2018-06-27T03:32:49.528Z,78.75
2018-06-27T03:33:49.541Z,78.75
2018-06-27T03:34:49.530Z,84.38
2018-06-27T03:35:49.533Z,84.38
2018-06-27T03:36:49.529Z,90.00
2018-06-27T03:37:49.532Z,90.00
2018-06-27T03:38:49.532Z,95.63
2018-06-27T03:39:49.531Z,95.63
2018-06-27T03:40:49.531Z,101.25
2018-06-27T03:41:49.533Z,106.88
2018-06-27T03:42:49.532Z,106.88
2018-06-27T03:43:49.532Z,112.50
2018-06-27T03:44:49.530Z,118.13
2018-06-27T03:45:49.533Z,118.13
2018-06-27T03:46:49.533Z,123.75
2018-06-27T03:47:49.534Z,123.75
2018-06-27T03:48:49.536Z,129.38
2018-06-27T03:49:49.538Z,129.38
2018-06-27T03:50:49.534Z,135.00
2018-06-27T03:51:49.535Z,135.00
2018-06-27T03:52:49.536Z,135.00
2018-06-27T03:53:49.539Z,140.63
2018-06-27T03:54:49.537Z,140.63
2018-06-27T03:55:49.537Z,140.63
2018-06-27T03:56:49.546Z,146.25
2018-06-27T03:57:49.538Z,146.25
2018-06-27T03:58:49.535Z,151.88
2018-06-27T03:59:49.540Z,151.88
2018-06-27T04:00:49.533Z,157.50
2018-06-27T04:01:49.539Z,163.13
2018-06-27T04:02:49.541Z,163.13
2018-06-27T04:03:49.540Z,168.75
2018-06-27T04:04:49.543Z,174.38
2018-06-27T04:05:49.542Z,180.00
2018-06-27T04:06:49.564Z,185.63
2018-06-27T04:07:49.544Z,185.63
2018-06-27T04:08:49.544Z,191.25
2018-06-27T04:09:49.543Z,191.25
2018-06-27T04:10:49.545Z,191.25
2018-06-27T04:11:49.549Z,191.25
2018-06-27T04:12:49.611Z,191.25
2018-06-27T04:13:49.552Z,196.88
2018-06-27T04:14:49.546Z,196.88
2018-06-27T04:15:49.551Z,202.50
2018-06-27T04:16:49.544Z,208.13
2018-06-27T04:17:49.550Z,219.38
2018-06-27T04:18:49.551Z,225.00
2018-06-27T04:19:49.549Z,241.88
2018-06-27T04:20:49.545Z,253.13
2018-06-27T04:21:49.550Z,264.38
2018-06-27T04:22:49.551Z,264.38
2018-06-27T04:23:49.552Z,270.00
2018-06-27T04:24:49.552Z,270.00
2018-06-27T04:25:49.552Z,270.00
2018-06-27T04:26:49.555Z,270.00
2018-06-27T04:27:49.554Z,270.00
2018-06-27T04:28:49.556Z,270.00
2018-06-27T04:29:49.559Z,270.00
2018-06-27T04:30:49.557Z,264.38
2018-06-27T04:31:49.558Z,258.75
2018-06-27T04:32:49.553Z,253.13
2018-06-27T04:33:49.560Z,253.13
2018-06-27T04:34:49.563Z,258.75
2018-06-27T04:35:49.582Z,264.38
2018-06-27T04:36:49.571Z,264.38
2018-06-27T04:37:49.565Z,270.00
2018-06-27T04:38:49.566Z,270.00
2018-06-27T04:39:49.565Z,270.00
2018-06-27T04:40:49.566Z,264.38
2018-06-27T04:41:49.561Z,270.00
2018-06-27T04:42:49.571Z,286.88
2018-06-27T04:43:49.569Z,286.88
2018-06-27T04:44:49.570Z,286.88
2018-06-27T04:45:49.573Z,292.50
2018-06-27T04:46:49.572Z,292.50
2018-06-27T04:47:49.571Z,292.50
2018-06-27T04:48:49.573Z,286.88
2018-06-27T04:49:49.582Z,286.88
2018-06-27T04:50:49.577Z,281.25
2018-06-27T04:51:49.576Z,281.25
2018-06-27T04:52:49.579Z,275.63
2018-06-27T04:53:49.581Z,247.50
2018-06-27T04:54:49.593Z,241.88
2018-06-27T04:55:49.583Z,236.25
2018-06-27T04:56:49.581Z,236.25
2018-06-27T04:57:49.585Z,236.25
2018-06-27T04:58:49.588Z,230.63
2018-06-27T04:59:49.591Z,241.88
2018-06-27T05:00:49.587Z,241.88
2018-06-27T05:01:49.665Z,241.88
2018-06-27T05:02:49.589Z,241.88
2018-06-27T05:03:49.593Z,247.50
2018-06-27T05:04:49.595Z,258.75
2018-06-27T05:05:49.594Z,270.00
2018-06-27T05:06:49.593Z,303.75
2018-06-27T05:07:49.597Z,348.75
2018-06-27T05:08:49.597Z,399.38
2018-06-27T05:09:49.614Z,433.13
2018-06-27T05:10:49.600Z,472.50
2018-06-27T05:11:49.606Z,461.25
2018-06-27T05:12:49.604Z,433.13
2018-06-27T05:13:49.606Z,399.38
2018-06-27T05:14:49.606Z,376.88
2018-06-27T05:15:49.609Z,354.38
2018-06-27T05:16:49.604Z,360.00
2018-06-27T05:17:49.610Z,365.63
2018-06-27T05:18:49.614Z,382.50
2018-06-27T05:19:49.615Z,399.38
2018-06-27T05:20:49.615Z,405.00
2018-06-27T05:21:49.624Z,433.13
2018-06-27T05:22:49.621Z,455.63
2018-06-27T05:23:49.622Z,461.25
2018-06-27T05:24:49.623Z,444.38
2018-06-27T05:25:49.621Z,416.25
2018-06-27T05:26:49.623Z,405.00
2018-06-27T05:27:49.628Z,427.50
2018-06-27T05:28:49.628Z,461.25
2018-06-27T05:29:49.630Z,472.50
2018-06-27T05:30:49.636Z,472.50
2018-06-27T05:31:49.634Z,450.00
2018-06-27T05:32:49.632Z,421.88
2018-06-27T05:33:49.642Z,399.38
2018-06-27T05:34:49.645Z,371.25
2018-06-27T05:35:49.643Z,348.75
2018-06-27T05:36:49.646Z,320.63
2018-06-27T05:37:49.647Z,309.38
2018-06-27T05:38:49.648Z,292.50
2018-06-27T05:39:49.650Z,303.75
2018-06-27T05:40:49.646Z,292.50
2018-06-27T05:41:49.657Z,292.50
2018-06-27T05:42:49.657Z,286.88
2018-06-27T05:43:49.657Z,286.88
2018-06-27T05:44:49.661Z,270.00
2018-06-27T05:45:49.662Z,258.75
2018-06-27T05:46:49.665Z,253.13
2018-06-27T05:47:49.667Z,258.75
2018-06-27T05:48:49.668Z,258.75
2018-06-27T05:49:49.669Z,264.38
2018-06-27T05:50:49.672Z,292.50
2018-06-27T05:51:49.674Z,298.13
2018-06-27T05:52:49.675Z,309.38
2018-06-27T05:53:49.688Z,303.75
2018-06-27T05:54:49.679Z,303.75
2018-06-27T05:55:49.681Z,303.75
2018-06-27T05:56:49.686Z,303.75
2018-06-27T05:57:49.682Z,303.75
2018-06-27T05:58:49.687Z,303.75
2018-06-27T05:59:49.687Z,303.75
2018-06-27T06:00:49.693Z,303.75
2018-06-27T06:01:49.691Z,286.88
2018-06-27T06:02:49.695Z,303.75
2018-06-27T06:03:49.697Z,309.38
2018-06-27T06:04:49.705Z,309.38
2018-06-27T06:05:49.696Z,309.38
2018-06-27T06:06:49.702Z,315.00
2018-06-27T06:07:49.705Z,303.75
2018-06-27T06:08:49.706Z,292.50
2018-06-27T06:09:49.712Z,315.00
2018-06-27T06:10:49.706Z,309.38
2018-06-27T06:11:49.711Z,309.38
2018-06-27T06:12:49.718Z,309.38
2018-06-27T06:13:49.716Z,303.75
2018-06-27T06:14:49.715Z,303.75
2018-06-27T06:15:49.720Z,303.75
2018-06-27T06:16:49.723Z,298.13
2018-06-27T06:17:49.722Z,298.13
2018-06-27T06:18:49.725Z,298.13
2018-06-27T06:19:49.756Z,298.13
2018-06-27T06:20:49.730Z,298.13
2018-06-27T06:21:49.731Z,303.75
2018-06-27T06:22:49.739Z,303.75
2018-06-27T06:23:49.736Z,303.75
2018-06-27T06:24:49.737Z,303.75
2018-06-27T06:25:49.733Z,303.75
2018-06-27T06:26:49.745Z,309.38
2018-06-27T06:27:49.747Z,309.38
2018-06-27T06:28:49.744Z,309.38
2018-06-27T06:29:49.748Z,309.38
2018-06-27T06:30:49.751Z,309.38
2018-06-27T06:31:49.752Z,309.38
2018-06-27T06:32:49.757Z,309.38
2018-06-27T06:33:49.756Z,309.38
2018-06-27T06:34:49.754Z,309.38
2018-06-27T06:35:49.775Z,309.38
2018-06-27T06:36:49.761Z,309.38
2018-06-27T06:37:49.766Z,309.38
2018-06-27T06:38:49.768Z,309.38
2018-06-27T06:39:49.770Z,309.38
2018-06-27T06:40:49.820Z,309.38
2018-06-27T06:41:49.774Z,315.00
2018-06-27T06:42:49.778Z,315.00
2018-06-27T06:43:49.780Z,270.00
2018-06-27T06:44:49.781Z,275.63
2018-06-27T06:45:49.784Z,292.50
2018-06-27T06:46:49.788Z,281.25
2018-06-27T06:47:49.789Z,320.63
2018-06-27T06:48:49.790Z,326.25
2018-06-27T06:49:49.796Z,326.25
2018-06-27T06:50:49.799Z,331.88
2018-06-27T06:51:49.800Z,331.88
2018-06-27T06:52:49.804Z,331.88
2018-06-27T06:53:49.805Z,331.88
2018-06-27T06:54:49.814Z,331.88
2018-06-27T06:55:49.810Z,343.13
2018-06-27T06:56:49.812Z,343.13
2018-06-27T06:57:49.818Z,348.75
2018-06-27T06:58:49.908Z,337.50
2018-06-27T06:59:49.825Z,331.88
2018-06-27T07:00:49.837Z,331.88
2018-06-27T07:01:49.826Z,331.88
2018-06-27T07:02:49.828Z,331.88
2018-06-27T07:03:49.837Z,326.25
2018-06-27T07:04:49.853Z,326.25
2018-06-27T07:05:49.838Z,320.63
2018-06-27T07:06:49.841Z,320.63
2018-06-27T07:07:49.843Z,320.63
2018-06-27T07:08:49.846Z,320.63
2018-06-27T07:09:49.849Z,320.63
2018-06-27T07:10:49.852Z,320.63
2018-06-27T07:11:49.855Z,320.63
2018-06-27T07:12:49.859Z,320.63
2018-06-27T07:13:49.860Z,320.63
2018-06-27T07:14:49.863Z,320.63
2018-06-27T07:15:49.868Z,320.63
2018-06-27T07:16:49.869Z,320.63
2018-06-27T07:17:49.924Z,320.63
2018-06-27T07:18:49.875Z,315.00
2018-06-27T07:19:49.880Z,320.63
2018-06-27T07:20:49.875Z,320.63
2018-06-27T07:21:49.885Z,320.63
2018-06-27T07:22:49.892Z,320.63
2018-06-27T07:23:49.889Z,320.63
2018-06-27T07:24:49.896Z,320.63
2018-06-27T07:25:49.898Z,320.63
2018-06-27T07:26:49.900Z,320.63
2018-06-27T07:27:49.905Z,320.63
2018-06-27T07:28:49.910Z,320.63
2018-06-27T07:29:49.907Z,320.63
2018-06-27T07:30:49.918Z,320.63
2018-06-27T07:31:49.915Z,320.63
2018-06-27T07:32:49.919Z,320.63
2018-06-27T07:33:49.922Z,320.63
2018-06-27T07:34:49.942Z,320.63
2018-06-27T07:35:49.975Z,320.63
2018-06-27T07:36:49.931Z,320.63
2018-06-27T07:37:49.935Z,320.63
2018-06-27T07:38:49.938Z,320.63
2018-06-27T07:39:49.942Z,320.63
2018-06-27T07:40:49.954Z,326.25
2018-06-27T07:41:49.948Z,326.25
2018-06-27T07:42:49.951Z,326.25
2018-06-27T07:43:49.954Z,331.88
2018-06-27T07:44:49.960Z,326.25
2018-06-27T07:45:49.961Z,331.88
2018-06-27T07:46:49.966Z,337.50
2018-06-27T07:47:49.971Z,337.50
2018-06-27T07:48:49.970Z,337.50
2018-06-27T07:49:49.991Z,337.50
2018-06-27T07:50:49.981Z,343.13
2018-06-27T07:51:49.983Z,348.75
2018-06-27T07:52:49.987Z,343.13
2018-06-27T07:53:49.990Z,348.75
2018-06-27T07:54:49.993Z,348.75
2018-06-27T07:55:49.995Z,371.25
2018-06-27T07:56:50.001Z,309.38
2018-06-27T07:57:50.000Z,360.00
2018-06-27T07:58:50.006Z,371.25
2018-06-27T07:59:50.012Z,298.13
2018-06-27T08:00:50.009Z,315.00
2018-06-27T08:01:50.018Z,365.63
2018-06-27T08:02:50.022Z,365.63
2018-06-27T08:03:50.018Z,309.38
2018-06-27T08:04:50.027Z,292.50
2018-06-27T08:05:50.077Z,326.25
2018-06-27T08:06:50.036Z,315.00
2018-06-27T08:07:50.047Z,365.63
2018-06-27T08:08:50.040Z,354.38
2018-06-27T08:09:50.045Z,354.38
2018-06-27T08:10:50.052Z,326.25
2018-06-27T08:11:50.048Z,343.13
2018-06-27T08:12:50.053Z,421.88
2018-06-27T08:13:50.059Z,472.50
2018-06-27T08:14:50.062Z,433.13
2018-06-27T08:15:50.066Z,489.38
2018-06-27T08:16:50.068Z,461.25
2018-06-27T08:17:50.105Z,450.00
2018-06-27T08:18:50.078Z,393.75
2018-06-27T08:19:50.081Z,399.38
2018-06-27T08:20:50.084Z,433.13
2018-06-27T08:21:50.086Z,483.75
2018-06-27T08:22:50.090Z,427.50
2018-06-27T08:23:50.095Z,388.13
2018-06-27T08:24:50.099Z,354.38
2018-06-27T08:25:50.101Z,399.38
2018-06-27T08:26:50.105Z,410.63
2018-06-27T08:27:50.113Z,343.13
2018-06-27T08:28:50.111Z,365.63
2018-06-27T08:29:50.116Z,371.25
2018-06-27T08:30:50.120Z,405.00
2018-06-27T08:31:50.132Z,506.25
2018-06-27T08:32:50.127Z,545.63
2018-06-27T08:33:50.134Z,545.63
2018-06-27T08:34:50.135Z,483.75
2018-06-27T08:35:50.139Z,523.13
2018-06-27T08:36:50.145Z,590.63
2018-06-27T08:37:50.148Z,624.38
2018-06-27T08:38:50.152Z,708.75
2018-06-27T08:39:50.154Z,618.75
2018-06-27T08:40:50.157Z,568.13
2018-06-27T08:41:50.161Z,618.75
2018-06-27T08:42:50.161Z,568.13
2018-06-27T08:43:50.174Z,585.00
2018-06-27T08:44:50.174Z,483.75
2018-06-27T08:45:50.178Z,523.13
2018-06-27T08:46:50.186Z,573.75
2018-06-27T08:47:50.186Z,585.00
2018-06-27T08:48:50.190Z,601.88
2018-06-27T08:49:50.255Z,607.50
2018-06-27T08:50:50.204Z,641.25
2018-06-27T08:51:50.205Z,658.13
2018-06-27T08:52:50.212Z,658.13
2018-06-27T08:53:50.214Z,703.13
2018-06-27T08:54:50.218Z,765.00
2018-06-27T08:55:50.222Z,770.63
2018-06-27T08:56:50.226Z,748.13
2018-06-27T08:57:50.232Z,776.25
2018-06-27T08:58:50.301Z,714.38
2018-06-27T08:59:50.239Z,669.38
2018-06-27T09:00:50.247Z,686.25
2018-06-27T09:01:50.249Z,697.50
2018-06-27T09:02:50.254Z,731.25
2018-06-27T09:03:50.259Z,826.88
2018-06-27T09:04:50.256Z,843.75
2018-06-27T09:05:50.262Z,742.50
2018-06-27T09:06:50.280Z,675.00
2018-06-27T09:07:50.369Z,635.63
2018-06-27T09:08:50.283Z,652.50
2018-06-27T09:09:50.290Z,663.75
2018-06-27T09:10:50.292Z,607.50
2018-06-27T09:11:50.297Z,568.13
2018-06-27T09:12:50.361Z,534.38
2018-06-27T09:13:50.307Z,523.13
2018-06-27T09:14:50.313Z,511.88
2018-06-27T09:15:50.321Z,517.50
2018-06-27T09:16:50.319Z,624.38
2018-06-27T09:17:50.328Z,658.13
2018-06-27T09:18:50.333Z,703.13
2018-06-27T09:19:50.337Z,753.75
2018-06-27T09:20:50.341Z,742.50
2018-06-27T09:21:50.346Z,855.00
2018-06-27T09:22:50.350Z,776.25
2018-06-27T09:23:50.354Z,759.38
2018-06-27T09:24:50.360Z,781.88
2018-06-27T09:25:50.365Z,781.88
2018-06-27T09:26:50.371Z,793.13
2018-06-27T09:27:50.370Z,804.38
2018-06-27T09:28:50.373Z,838.13
2018-06-27T09:29:50.390Z,753.75
2018-06-27T09:30:50.386Z,725.63
2018-06-27T09:31:50.394Z,765.00
2018-06-27T09:32:50.402Z,680.63
2018-06-27T09:33:50.407Z,680.63
2018-06-27T09:34:50.415Z,703.13
2018-06-27T09:35:50.415Z,838.13
2018-06-27T09:36:50.421Z,877.50
2018-06-27T09:37:50.428Z,843.75
2018-06-27T09:38:50.434Z,787.50
2018-06-27T09:39:50.438Z,888.75
2018-06-27T09:40:50.443Z,877.50
2018-06-27T09:41:50.483Z,798.75
2018-06-27T09:42:50.454Z,776.25
2018-06-27T09:43:50.459Z,843.75
2018-06-27T09:44:50.469Z,838.13
2018-06-27T09:45:50.470Z,838.13
2018-06-27T09:46:50.476Z,804.38
2018-06-27T09:47:50.482Z,855.00
2018-06-27T09:48:50.489Z,860.63
2018-06-27T09:49:50.494Z,849.38
2018-06-27T09:50:50.505Z,883.13
2018-06-27T09:51:50.506Z,900.00
2018-06-27T09:52:50.512Z,849.38
2018-06-27T09:53:50.519Z,815.63
2018-06-27T09:54:50.525Z,759.38
2018-06-27T09:55:50.531Z,776.25
2018-06-27T09:56:50.558Z,821.25
2018-06-27T09:57:50.542Z,888.75
2018-06-27T09:58:50.554Z,950.63
2018-06-27T09:59:50.557Z,1006.88
2018-06-27T10:00:50.562Z,1029.38
2018-06-27T10:01:50.571Z,978.75
2018-06-27T10:02:50.573Z,922.50
2018-06-27T10:03:50.583Z,888.75
2018-06-27T10:04:50.581Z,815.63
2018-06-27T10:05:50.592Z,742.50
2018-06-27T10:06:50.598Z,675.00
2018-06-27T10:07:50.609Z,624.38
2018-06-27T10:08:50.612Z,596.25
2018-06-27T10:09:50.617Z,556.88
2018-06-27T10:10:50.621Z,528.75
2018-06-27T10:11:50.630Z,534.38
2018-06-27T10:12:50.636Z,568.13
2018-06-27T10:13:50.645Z,624.38
2018-06-27T10:14:50.648Z,714.38
2018-06-27T10:15:50.655Z,675.00
2018-06-27T10:16:50.668Z,725.63
2018-06-27T10:17:50.665Z,753.75
2018-06-27T10:18:50.666Z,871.88
2018-06-27T10:19:50.674Z,928.13
2018-06-27T10:20:50.684Z,911.25
2018-06-27T10:21:50.704Z,939.38
2018-06-27T10:22:50.696Z,928.13
2018-06-27T10:23:50.698Z,883.13
2018-06-27T10:24:50.709Z,888.75
2018-06-27T10:25:50.717Z,945.00
2018-06-27T10:26:50.714Z,973.13
2018-06-27T10:27:50.719Z,1018.13
2018-06-27T10:28:50.733Z,1068.75
2018-06-27T10:29:50.736Z,1085.63
2018-06-27T10:30:50.743Z,1051.88
2018-06-27T10:31:50.748Z,1035.00
2018-06-27T10:32:50.753Z,1023.75
2018-06-27T10:33:50.761Z,1018.13
2018-06-27T10:34:50.778Z,1018.13
2018-06-27T10:35:50.891Z,1018.13
2018-06-27T10:36:50.779Z,1040.63
2018-06-27T10:37:50.787Z,1046.25
2018-06-27T10:38:50.793Z,1046.25
2018-06-27T10:39:50.799Z,1046.25
2018-06-27T10:40:50.804Z,1023.75
2018-06-27T10:41:50.812Z,961.88
2018-06-27T10:42:50.822Z,995.63
2018-06-27T10:43:50.819Z,1018.13
2018-06-27T10:44:50.843Z,933.75
2018-06-27T10:45:50.837Z,871.88
2018-06-27T10:46:50.843Z,843.75
2018-06-27T10:47:50.852Z,843.75
2018-06-27T10:48:50.856Z,855.00
2018-06-27T10:49:50.857Z,866.25
2018-06-27T10:50:50.872Z,843.75
2018-06-27T10:51:50.876Z,815.63
2018-06-27T10:52:50.884Z,781.88
2018-06-27T10:53:50.889Z,759.38
2018-06-27T10:54:50.896Z,748.13
2018-06-27T10:55:50.906Z,759.38
2018-06-27T10:56:50.906Z,798.75
2018-06-27T10:57:50.914Z,866.25
2018-06-27T10:58:50.925Z,945.00
2018-06-27T10:59:50.928Z,1018.13
2018-06-27T11:00:50.933Z,1074.38
2018-06-27T11:01:50.942Z,1080.00
2018-06-27T11:02:50.951Z,1012.50
2018-06-27T11:03:50.954Z,973.13
2018-06-27T11:04:50.959Z,928.13
2018-06-27T11:05:51.002Z,855.00
2018-06-27T11:06:50.976Z,787.50
2018-06-27T11:07:50.980Z,742.50
2018-06-27T11:08:50.986Z,731.25
2018-06-27T11:09:50.990Z,753.75
2018-06-27T11:10:51.002Z,787.50
2018-06-27T11:11:51.008Z,793.13
2018-06-27T11:12:51.013Z,776.25
2018-06-27T11:13:51.017Z,753.75
2018-06-27T11:14:51.028Z,680.63
2018-06-27T11:15:51.037Z,607.50
2018-06-27T11:16:51.041Z,528.75
2018-06-27T11:17:51.047Z,472.50
2018-06-27T11:18:51.056Z,438.75
2018-06-27T11:19:51.055Z,410.63
2018-06-27T11:20:51.067Z,410.63
2018-06-27T11:21:51.074Z,405.00
2018-06-27T11:22:51.082Z,405.00
2018-06-27T11:23:51.088Z,421.88
2018-06-27T11:24:51.094Z,438.75
2018-06-27T11:25:51.095Z,461.25
2018-06-27T11:26:51.173Z,495.00
2018-06-27T11:27:51.114Z,523.13
2018-06-27T11:28:51.120Z,556.88
2018-06-27T11:29:51.128Z,579.38
2018-06-27T11:30:51.133Z,579.38
2018-06-27T11:31:51.140Z,573.75
2018-06-27T11:32:51.219Z,562.50
2018-06-27T11:33:51.151Z,556.88
2018-06-27T11:34:51.159Z,540.00
2018-06-27T11:35:51.165Z,523.13
2018-06-27T11:36:51.171Z,517.50
2018-06-27T11:37:51.177Z,511.88
2018-06-27T11:38:51.284Z,528.75
2018-06-27T11:39:51.189Z,534.38
2018-06-27T11:40:51.195Z,556.88
2018-06-27T11:41:51.201Z,585.00
2018-06-27T11:42:51.227Z,618.75
2018-06-27T11:43:51.208Z,669.38
2018-06-27T11:44:51.220Z,736.88
2018-06-27T11:45:51.227Z,781.88
2018-06-27T11:46:51.233Z,832.50
2018-06-27T11:47:51.242Z,866.25
2018-06-27T11:48:51.252Z,871.88
2018-06-27T11:49:51.251Z,866.25
2018-06-27T11:50:51.258Z,860.63
2018-06-27T11:51:51.264Z,866.25
2018-06-27T11:52:51.274Z,877.50
2018-06-27T11:53:51.278Z,883.13
2018-06-27T11:54:51.279Z,900.00
2018-06-27T11:55:51.292Z,916.88
2018-06-27T11:56:51.293Z,945.00
2018-06-27T11:57:51.304Z,961.88
2018-06-27T11:58:51.308Z,995.63
2018-06-27T11:59:51.313Z,1040.63
2018-06-27T12:00:51.321Z,1102.50
2018-06-27T12:01:51.330Z,1164.38
2018-06-27T12:02:51.337Z,1271.25
2018-06-27T12:03:51.343Z,1321.88
2018-06-27T12:04:51.349Z,1378.13
2018-06-27T12:05:51.356Z,1389.38
2018-06-27T12:06:51.364Z,1344.38
2018-06-27T12:07:51.371Z,1231.88
2018-06-27T12:08:51.378Z,1164.38
2018-06-27T12:09:51.385Z,1108.13
2018-06-27T12:10:51.392Z,1096.88
2018-06-27T12:11:51.399Z,1096.88
2018-06-27T12:12:51.405Z,1125.00
2018-06-27T12:13:51.414Z,1147.50
2018-06-27T12:14:51.416Z,1108.13
2018-06-27T12:15:51.430Z,1023.75
2018-06-27T12:16:51.457Z,928.13
2018-06-27T12:17:51.441Z,860.63
2018-06-27T12:18:51.449Z,810.00
2018-06-27T12:19:51.458Z,787.50
2018-06-27T12:20:51.465Z,759.38
2018-06-27T12:21:51.471Z,748.13
2018-06-27T12:22:51.479Z,731.25
2018-06-27T12:23:51.492Z,731.25
2018-06-27T12:24:51.494Z,691.88
2018-06-27T12:25:51.503Z,720.00
2018-06-27T12:26:51.509Z,669.38
2018-06-27T12:27:51.517Z,658.13
2018-06-27T12:28:51.524Z,686.25
2018-06-27T12:29:51.531Z,742.50
2018-06-27T12:30:51.538Z,838.13
2018-06-27T12:31:51.545Z,961.88
2018-06-27T12:32:51.555Z,1080.00
2018-06-27T12:33:51.558Z,1147.50
2018-06-27T12:34:51.568Z,1209.38
2018-06-27T12:35:51.575Z,1265.63
2018-06-27T12:36:51.579Z,1237.50
2018-06-27T12:37:51.587Z,1231.88
2018-06-27T12:38:51.591Z,1260.00
2018-06-27T12:39:51.600Z,1288.13